createdAt,value
2018-09-24T00:00:24.721Z,66.10
2018-09-24T00:02:54.080Z,65.30
2018-09-24T00:05:23.459Z,65.20
2018-09-24T00:07:52.819Z,65.20
2018-09-24T00:10:22.203Z,65.10
2018-09-24T00:12:51.541Z,65.10
2018-09-24T00:15:20.934Z,65.10
2018-09-24T00:17:50.277Z,65.10
2018-09-24T00:20:19.617Z,65.10
2018-09-24T00:22:48.957Z,65.10
2018-09-24T00:25:18.563Z,65.10
2018-09-24T00:27:47.968Z,65.20
2018-09-24T00:30:17.364Z,65.20
2018-09-24T00:32:46.716Z,65.20
2018-09-24T00:35:16.036Z,65.30
2018-09-24T00:37:45.388Z,65.40
2018-09-24T00:40:14.756Z,65.50
2018-09-24T00:42:44.214Z,65.50
2018-09-24T00:45:13.596Z,65.50
2018-09-24T00:47:42.956Z,65.50
2018-09-24T00:50:12.351Z,65.40
2018-09-24T00:52:41.708Z,65.40
2018-09-24T00:55:11.074Z,65.40
2018-09-24T00:57:40.438Z,65.30
2018-09-24T01:00:09.779Z,65.20
2018-09-24T01:02:39.959Z,65.10
2018-09-24T01:05:09.431Z,65.10
2018-09-24T01:07:39.144Z,65.00
2018-09-24T01:10:08.925Z,65.10
2018-09-24T01:12:38.308Z,65.60
2018-09-24T01:15:07.960Z,65.00
2018-09-24T01:17:37.502Z,64.90
2018-09-24T01:20:07.471Z,64.80
2018-09-24T01:22:36.798Z,64.80
2018-09-24T01:25:06.573Z,64.80
2018-09-24T01:27:36.449Z,64.70
2018-09-24T01:30:05.957Z,64.70
2018-09-24T01:32:35.311Z,64.60
2018-09-24T01:35:04.712Z,64.50
2018-09-24T01:37:34.080Z,64.60
2018-09-24T01:40:03.897Z,64.80
2018-09-24T01:42:33.236Z,65.00
2018-09-24T01:45:02.602Z,65.00
2018-09-24T01:47:31.988Z,65.20
2018-09-24T01:50:01.361Z,65.20
2018-09-24T01:52:30.773Z,65.10
2018-09-24T01:55:00.129Z,65.20
2018-09-24T01:57:29.464Z,65.10
2018-09-24T01:59:58.871Z,65.30
2018-09-24T02:02:28.257Z,65.30
2018-09-24T02:04:57.721Z,65.30
2018-09-24T02:07:27.081Z,65.30
2018-09-24T02:09:56.461Z,66.20
2018-09-24T02:12:25.777Z,65.60
2018-09-24T02:14:55.147Z,65.80
2018-09-24T02:17:24.499Z,67.00
2018-09-24T02:19:53.844Z,66.50
2018-09-24T02:22:30.527Z,66.10
2018-09-24T02:25:00.538Z,65.90
2018-09-24T02:27:29.936Z,65.80
2018-09-24T02:29:59.263Z,65.80
2018-09-24T02:32:28.619Z,65.70
2018-09-24T02:34:58.623Z,65.60
2018-09-24T02:37:28.007Z,65.60
2018-09-24T02:39:57.368Z,65.60
2018-09-24T02:42:26.737Z,65.80
2018-09-24T02:44:57.283Z,65.90
2018-09-24T02:47:31.337Z,66.10
2018-09-24T02:50:02.065Z,66.10
2018-09-24T02:52:31.445Z,66.20
2018-09-24T02:55:00.805Z,66.20
2018-09-24T02:57:30.149Z,66.30
2018-09-24T02:59:59.592Z,66.30
2018-09-24T03:02:28.939Z,66.40
2018-09-24T03:04:58.280Z,66.40
2018-09-24T03:07:27.636Z,66.20
2018-09-24T03:09:57.021Z,66.20
2018-09-24T03:12:26.363Z,66.20
2018-09-24T03:14:55.737Z,66.30
2018-09-24T03:17:25.224Z,66.20
2018-09-24T03:19:54.602Z,66.20
2018-09-24T03:22:25.138Z,66.20
2018-09-24T03:24:55.338Z,66.20
2018-09-24T03:27:25.076Z,66.30
2018-09-24T03:29:54.516Z,66.20
2018-09-24T03:32:23.860Z,67.00
2018-09-24T03:34:53.300Z,66.90
2018-09-24T03:37:22.647Z,66.10
2018-09-24T03:39:52.007Z,66.00
2018-09-24T03:42:21.368Z,66.00
2018-09-24T03:44:50.693Z,66.10
2018-09-24T03:47:20.055Z,66.10
2018-09-24T03:49:49.479Z,66.20
2018-09-24T03:52:18.815Z,66.10
2018-09-24T03:54:48.205Z,66.20
2018-09-24T03:57:17.566Z,66.50
2018-09-24T03:59:46.916Z,66.50
2018-09-24T04:02:16.251Z,66.50
2018-09-24T04:04:50.678Z,66.40
2018-09-24T04:07:25.240Z,66.20
2018-09-24T04:09:59.908Z,66.10
2018-09-24T04:12:34.478Z,66.10
2018-09-24T04:15:09.035Z,66.20
2018-09-24T04:17:43.430Z,66.30
2018-09-24T04:20:18.127Z,66.20
2018-09-24T04:22:52.758Z,66.20
2018-09-24T04:25:27.365Z,66.10
2018-09-24T04:28:02.015Z,66.00
2018-09-24T04:30:36.477Z,65.90
2018-09-24T04:33:11.019Z,65.70
2018-09-24T04:35:45.575Z,65.70
2018-09-24T04:38:20.155Z,65.80
2018-09-24T04:40:54.744Z,66.00
2018-09-24T04:43:29.174Z,66.10
2018-09-24T04:46:03.645Z,66.20
2018-09-24T04:48:38.128Z,66.30
2018-09-24T04:51:12.868Z,66.50
2018-09-24T04:53:47.403Z,66.50
2018-09-24T04:56:21.920Z,66.50
2018-09-24T04:58:56.404Z,66.40
2018-09-24T05:01:30.981Z,66.50
2018-09-24T05:04:05.532Z,66.60
2018-09-24T05:06:40.090Z,66.20
2018-09-24T05:09:15.000Z,66.00
2018-09-24T05:11:49.583Z,65.90
2018-09-24T05:14:24.137Z,65.80
2018-09-24T05:16:58.720Z,66.50
2018-09-24T05:19:33.201Z,65.70
2018-09-24T05:22:07.764Z,65.80
2018-09-24T05:24:42.317Z,65.60
2018-09-24T05:27:16.970Z,65.60
2018-09-24T05:29:51.455Z,65.80
2018-09-24T05:32:26.143Z,65.80
2018-09-24T05:35:00.637Z,65.90
2018-09-24T05:37:35.133Z,65.90
2018-09-24T05:40:09.617Z,66.10
2018-09-24T05:42:44.312Z,66.90
2018-09-24T05:45:18.824Z,66.20
2018-09-24T05:47:53.654Z,66.30
2018-09-24T05:50:28.192Z,66.40
2018-09-24T05:53:02.823Z,67.10
2018-09-24T05:55:37.621Z,66.70
2018-09-24T05:58:13.404Z,66.70
2018-09-24T06:00:47.845Z,66.80
2018-09-24T06:03:22.380Z,66.90
2018-09-24T06:05:57.165Z,66.90
2018-09-24T06:08:31.683Z,67.00
2018-09-24T06:11:06.295Z,67.00
2018-09-24T06:13:40.876Z,67.00
2018-09-24T06:16:15.415Z,66.90
2018-09-24T06:18:49.884Z,66.90
2018-09-24T06:21:24.407Z,67.00
2018-09-24T06:23:58.903Z,67.00
2018-09-24T06:26:33.591Z,67.00
2018-09-24T06:29:08.185Z,67.10
2018-09-24T06:31:42.705Z,68.60
2018-09-24T06:34:17.358Z,68.20
2018-09-24T06:36:51.820Z,68.00
2018-09-24T06:39:26.551Z,67.90
2018-09-24T06:42:01.172Z,67.90
2018-09-24T06:44:35.719Z,67.90
2018-09-24T06:47:10.317Z,67.90
2018-09-24T06:49:46.751Z,67.90
2018-09-24T06:52:21.348Z,68.00
2018-09-24T06:54:55.791Z,68.80
2018-09-24T06:57:30.370Z,68.90
2018-09-24T07:00:05.096Z,68.10
2018-09-24T07:02:39.601Z,68.10
2018-09-24T07:05:14.239Z,68.20
2018-09-24T07:07:48.758Z,68.10
2018-09-24T07:10:23.216Z,68.10
2018-09-24T07:12:57.793Z,68.00
2018-09-24T07:15:32.309Z,67.80
2018-09-24T07:18:07.011Z,67.70
2018-09-24T07:20:41.529Z,67.70
2018-09-24T07:23:16.235Z,67.70
2018-09-24T07:25:50.889Z,67.60
2018-09-24T07:28:25.450Z,67.50
2018-09-24T07:30:59.965Z,67.50
2018-09-24T07:33:34.550Z,67.50
2018-09-24T07:36:09.097Z,67.40
2018-09-24T07:38:43.824Z,67.30
2018-09-24T07:41:18.447Z,67.00
2018-09-24T07:43:52.940Z,67.10
2018-09-24T07:46:27.348Z,67.00
2018-09-24T07:49:01.918Z,67.00
2018-09-24T07:51:37.565Z,66.80
2018-09-24T07:54:12.133Z,66.90
2018-09-24T07:56:46.633Z,66.90
2018-09-24T07:59:21.057Z,66.80
2018-09-24T08:01:55.639Z,66.80
2018-09-24T08:04:30.080Z,66.80
2018-09-24T08:07:04.739Z,66.80
2018-09-24T08:09:39.449Z,66.80
2018-09-24T08:12:14.341Z,66.80
2018-09-24T08:14:48.940Z,66.80
2018-09-24T08:17:23.580Z,66.50
2018-09-24T08:19:58.089Z,66.40
2018-09-24T08:22:32.783Z,66.30
2018-09-24T08:25:07.354Z,66.30
2018-09-24T08:27:41.914Z,66.30
2018-09-24T08:30:16.420Z,66.10
2018-09-24T08:32:51.088Z,66.10
2018-09-24T08:35:25.700Z,66.10
2018-09-24T08:38:00.424Z,66.00
2018-09-24T08:40:34.785Z,66.00
2018-09-24T08:43:09.413Z,65.90
2018-09-24T08:45:43.980Z,65.90
2018-09-24T08:48:18.636Z,65.60
2018-09-24T08:50:53.165Z,65.50
2018-09-24T08:53:27.859Z,65.60
2018-09-24T08:56:02.525Z,65.60
2018-09-24T08:58:37.016Z,65.70
2018-09-24T09:01:11.643Z,65.70
2018-09-24T09:03:46.275Z,65.70
2018-09-24T09:06:20.845Z,65.80
2018-09-24T09:08:55.420Z,65.70
2018-09-24T09:11:29.924Z,65.70
2018-09-24T09:14:04.487Z,65.70
2018-09-24T09:16:39.137Z,65.50
2018-09-24T09:19:13.708Z,65.20
2018-09-24T09:21:48.356Z,65.10
2018-09-24T09:24:22.966Z,64.30
2018-09-24T09:26:57.424Z,64.80
2018-09-24T09:29:31.987Z,64.50
2018-09-24T09:32:06.587Z,64.40
2018-09-24T09:34:41.015Z,64.20
2018-09-24T09:37:15.602Z,64.00
2018-09-24T09:39:50.144Z,63.80
2018-09-24T09:42:24.688Z,63.80
2018-09-24T09:44:59.167Z,63.70
2018-09-24T09:47:33.745Z,63.70
2018-09-24T09:50:08.295Z,63.80
2018-09-24T09:52:42.740Z,63.90
2018-09-24T09:55:17.436Z,63.80
2018-09-24T09:57:51.981Z,63.70
2018-09-24T10:00:26.571Z,63.70
2018-09-24T10:03:01.124Z,63.70
2018-09-24T10:05:35.762Z,63.70
2018-09-24T10:08:10.337Z,63.60
2018-09-24T10:10:44.757Z,63.50
2018-09-24T10:13:19.389Z,63.30
2018-09-24T10:15:53.812Z,62.90
2018-09-24T10:18:28.226Z,63.70
2018-09-24T10:21:02.767Z,62.70
2018-09-24T10:23:37.430Z,62.50
2018-09-24T10:26:12.046Z,62.10
2018-09-24T10:28:46.615Z,61.90
2018-09-24T10:31:21.125Z,61.80
2018-09-24T10:33:55.709Z,61.80
2018-09-24T10:36:30.457Z,61.70
2018-09-24T10:39:05.145Z,61.90
2018-09-24T10:41:39.736Z,61.90
2018-09-24T10:44:14.476Z,61.90
2018-09-24T10:46:49.080Z,62.00
2018-09-24T10:49:23.650Z,62.10
2018-09-24T10:51:58.172Z,61.90
2018-09-24T10:54:32.790Z,61.80
2018-09-24T10:57:07.277Z,61.80
2018-09-24T10:59:41.958Z,61.80
2018-09-24T11:02:16.669Z,61.60
2018-09-24T11:04:51.214Z,61.50
2018-09-24T11:07:25.579Z,60.60
2018-09-24T11:10:00.218Z,60.80
2018-09-24T11:12:34.747Z,60.60
2018-09-24T11:15:09.421Z,60.60
2018-09-24T11:17:44.066Z,60.40
2018-09-24T11:20:18.609Z,60.10
2018-09-24T11:22:53.228Z,60.10
2018-09-24T11:25:27.723Z,60.10
2018-09-24T11:28:02.227Z,60.30
2018-09-24T11:30:36.772Z,60.30
2018-09-24T11:33:11.315Z,60.10
2018-09-24T11:35:45.917Z,60.80
2018-09-24T11:38:20.494Z,59.70
2018-09-24T11:40:55.063Z,59.80
2018-09-24T11:43:29.683Z,59.90
2018-09-24T11:46:04.252Z,59.80
2018-09-24T11:48:38.711Z,60.70
2018-09-24T11:51:13.402Z,59.60
2018-09-24T11:53:47.969Z,59.40
2018-09-24T11:56:22.649Z,60.00
2018-09-24T11:58:57.185Z,59.80
2018-09-24T12:01:31.745Z,59.80
2018-09-24T12:04:06.280Z,59.40
2018-09-24T12:06:40.869Z,58.80
2018-09-24T12:09:15.867Z,58.60
2018-09-24T12:11:50.493Z,58.60
2018-09-24T12:14:25.535Z,58.60
2018-09-24T12:17:00.392Z,58.70
2018-09-24T12:19:34.994Z,58.10
2018-09-24T12:22:09.684Z,58.40
2018-09-24T12:24:44.266Z,57.90
2018-09-24T12:27:19.062Z,57.80
2018-09-24T12:29:53.732Z,57.20
2018-09-24T12:32:28.182Z,57.30
2018-09-24T12:35:02.834Z,57.10
2018-09-24T12:37:37.455Z,56.70
2018-09-24T12:40:11.953Z,57.10
2018-09-24T12:42:46.746Z,57.10
2018-09-24T12:45:21.192Z,56.90
2018-09-24T12:47:55.698Z,56.80
2018-09-24T12:50:30.267Z,57.00
2018-09-24T12:53:04.746Z,57.50
2018-09-24T12:55:39.324Z,56.90
2018-09-24T12:58:14.028Z,57.00
2018-09-24T13:00:48.752Z,56.70
2018-09-24T13:03:23.314Z,56.40
2018-09-24T13:05:57.839Z,56.50
2018-09-24T13:08:32.306Z,56.60
2018-09-24T13:11:06.937Z,56.60
2018-09-24T13:13:41.546Z,56.60
2018-09-24T13:16:16.186Z,56.50
2018-09-24T13:18:50.757Z,56.40
2018-09-24T13:21:25.369Z,56.10
2018-09-24T13:23:59.978Z,56.30
2018-09-24T13:26:34.403Z,56.40
2018-09-24T13:29:08.996Z,56.50
2018-09-24T13:31:43.593Z,55.70
2018-09-24T13:34:18.125Z,55.80
2018-09-24T13:36:52.776Z,56.00
2018-09-24T13:39:27.417Z,56.20
2018-09-24T13:42:01.971Z,56.30
2018-09-24T13:44:36.668Z,56.40
2018-09-24T13:47:11.232Z,56.00
2018-09-24T13:49:45.977Z,56.10
2018-09-24T13:52:20.591Z,56.10
2018-09-24T13:54:55.152Z,55.90
2018-09-24T13:57:29.574Z,56.00
2018-09-24T14:00:04.211Z,55.90
2018-09-24T14:02:38.829Z,56.10
2018-09-24T14:05:13.451Z,56.20
2018-09-24T14:07:48.004Z,56.20
2018-09-24T14:10:22.682Z,56.30
2018-09-24T14:12:57.423Z,56.10
2018-09-24T14:15:31.952Z,55.90
2018-09-24T14:18:06.428Z,55.80
2018-09-24T14:20:40.986Z,55.40
2018-09-24T14:23:15.516Z,55.60
2018-09-24T14:25:50.165Z,55.80
2018-09-24T14:28:24.608Z,55.90
2018-09-24T14:30:59.163Z,55.90
2018-09-24T14:33:33.788Z,55.70
2018-09-24T14:36:08.381Z,55.40
2018-09-24T14:38:42.918Z,55.20
2018-09-24T14:41:17.445Z,55.40
2018-09-24T14:43:51.967Z,55.40
2018-09-24T14:46:26.715Z,55.40
2018-09-24T14:49:01.361Z,55.10
2018-09-24T14:51:36.004Z,55.20
2018-09-24T14:54:10.413Z,55.30
2018-09-24T14:56:45.153Z,55.50
2018-09-24T14:59:19.693Z,55.40
2018-09-24T15:01:54.341Z,55.60
2018-09-24T15:04:28.952Z,55.30
2018-09-24T15:07:03.553Z,55.20
2018-09-24T15:09:38.108Z,55.00
2018-09-24T15:12:12.654Z,54.80
2018-09-24T15:14:47.458Z,54.80
2018-09-24T15:17:22.074Z,54.80
2018-09-24T15:19:56.563Z,54.70
2018-09-24T15:22:31.323Z,54.40
2018-09-24T15:25:05.990Z,54.70
2018-09-24T15:27:41.978Z,54.50
2018-09-24T15:30:16.639Z,54.20
2018-09-24T15:32:51.213Z,54.10
2018-09-24T15:35:25.799Z,54.20
2018-09-24T15:38:00.348Z,54.20
2018-09-24T15:40:34.965Z,54.10
2018-09-24T15:43:09.454Z,54.20
2018-09-24T15:45:44.057Z,54.40
2018-09-24T15:48:18.636Z,54.00
2018-09-24T15:50:53.297Z,54.20
2018-09-24T15:53:27.848Z,54.00
2018-09-24T15:56:02.363Z,54.00
2018-09-24T15:58:37.005Z,53.90
2018-09-24T16:01:11.645Z,53.60
2018-09-24T16:03:46.169Z,53.60
2018-09-24T16:06:20.740Z,53.60
2018-09-24T16:08:55.323Z,53.70
2018-09-24T16:11:29.866Z,53.70
2018-09-24T16:14:04.464Z,53.40
2018-09-24T16:16:39.090Z,53.70
2018-09-24T16:19:13.662Z,53.60
2018-09-24T16:21:55.143Z,53.70
2018-09-24T16:24:29.619Z,53.70
2018-09-24T16:27:04.237Z,53.80
2018-09-24T16:29:38.696Z,53.70
2018-09-24T16:32:13.181Z,53.80
2018-09-24T16:34:47.673Z,53.80
2018-09-24T16:37:22.278Z,53.80
2018-09-24T16:39:56.700Z,54.30
2018-09-24T16:42:46.850Z,53.80
2018-09-24T16:45:21.485Z,53.80
2018-09-24T16:47:55.940Z,53.70
2018-09-24T16:50:30.568Z,54.00
2018-09-24T16:53:05.220Z,54.00
2018-09-24T16:55:39.801Z,54.10
2018-09-24T16:58:14.386Z,54.10
2018-09-24T17:00:48.866Z,54.10
2018-09-24T17:03:23.471Z,54.10
2018-09-24T17:05:58.022Z,54.20
2018-09-24T17:08:32.724Z,54.30
2018-09-24T17:11:07.682Z,54.50
2018-09-24T17:13:42.851Z,54.60
2018-09-24T17:16:17.450Z,54.80
2018-09-24T17:18:52.015Z,55.00
2018-09-24T17:21:26.515Z,55.30
2018-09-24T17:24:01.055Z,55.30
2018-09-24T17:26:35.505Z,55.30
2018-09-24T17:29:10.240Z,55.40
2018-09-24T17:31:44.895Z,55.60
2018-09-24T17:34:19.475Z,55.60
2018-09-24T17:36:54.299Z,55.70
2018-09-24T17:39:28.888Z,56.00
2018-09-24T17:42:03.460Z,56.10
2018-09-24T17:44:38.039Z,56.20
2018-09-24T17:47:13.168Z,56.50
2018-09-24T17:49:47.677Z,56.70
2018-09-24T17:52:22.285Z,56.90
2018-09-24T17:54:56.792Z,57.10
2018-09-24T17:57:31.376Z,57.30
2018-09-24T18:00:08.492Z,57.50
2018-09-24T18:02:44.687Z,57.70
2018-09-24T18:05:21.444Z,57.90
2018-09-24T18:07:59.855Z,57.90
2018-09-24T18:10:36.301Z,57.90
2018-09-24T18:13:12.443Z,57.90
2018-09-24T18:15:48.376Z,57.90
2018-09-24T18:18:24.920Z,58.10
2018-09-24T18:21:00.463Z,58.00
2018-09-24T18:23:38.770Z,57.90
2018-09-24T18:26:15.246Z,58.00
2018-09-24T18:28:49.777Z,58.10
2018-09-24T18:31:24.420Z,58.20
2018-09-24T18:33:59.029Z,58.10
2018-09-24T18:36:33.758Z,57.30
2018-09-24T18:39:08.586Z,57.60
2018-09-24T18:41:43.377Z,57.40
2018-09-24T18:44:18.114Z,57.50
2018-09-24T18:46:52.791Z,57.50
2018-09-24T18:49:27.371Z,57.50
2018-09-24T18:52:01.885Z,57.60
2018-09-24T18:54:36.482Z,57.50
2018-09-24T18:57:11.074Z,57.40
2018-09-24T18:59:45.681Z,57.40
2018-09-24T19:02:20.292Z,57.50
2018-09-24T19:04:54.805Z,57.50
2018-09-24T19:07:29.581Z,57.50
2018-09-24T19:10:04.314Z,57.60
2018-09-24T19:12:39.026Z,57.50
2018-09-24T19:15:13.736Z,57.60
2018-09-24T19:17:48.550Z,57.60
2018-09-24T19:20:23.255Z,57.70
2018-09-24T19:22:57.970Z,57.70
2018-09-24T19:25:32.577Z,57.80
2018-09-24T19:28:07.218Z,57.80
2018-09-24T19:30:41.767Z,57.70
2018-09-24T19:33:16.261Z,57.80
2018-09-24T19:35:50.808Z,57.80
2018-09-24T19:38:25.421Z,57.90
2018-09-24T19:41:00.028Z,58.00
2018-09-24T19:43:34.796Z,57.90
2018-09-24T19:46:09.486Z,58.00
2018-09-24T19:48:44.248Z,58.00
2018-09-24T19:51:18.775Z,58.20
2018-09-24T19:53:53.507Z,58.20
2018-09-24T19:56:28.147Z,58.40
2018-09-24T19:59:02.734Z,58.40
2018-09-24T20:01:37.451Z,58.40
2018-09-24T20:04:12.281Z,58.50
2018-09-24T20:06:46.944Z,58.70
2018-09-24T20:09:21.597Z,58.60
2018-09-24T20:11:56.318Z,58.70
2018-09-24T20:14:31.086Z,58.90
2018-09-24T20:17:05.831Z,58.90
2018-09-24T20:19:40.519Z,58.90
2018-09-24T20:22:15.052Z,58.80
2018-09-24T20:24:49.642Z,58.80
2018-09-24T20:27:24.221Z,58.90
2018-09-24T20:29:58.727Z,58.90
2018-09-24T20:32:33.463Z,58.80
2018-09-24T20:35:08.142Z,59.40
2018-09-24T20:37:42.845Z,58.80
2018-09-24T20:40:17.580Z,58.80
2018-09-24T20:42:52.173Z,58.80
2018-09-24T20:45:26.834Z,58.90
2018-09-24T20:48:01.511Z,59.00
2018-09-24T20:50:36.060Z,59.00
2018-09-24T20:53:10.887Z,59.20
2018-09-24T20:55:45.627Z,59.40
2018-09-24T20:58:20.227Z,59.50
2018-09-24T21:00:54.768Z,60.30
2018-09-24T21:03:29.365Z,59.70
2018-09-24T21:06:03.953Z,59.80
2018-09-24T21:08:38.714Z,59.90
2018-09-24T21:11:13.279Z,60.20
2018-09-24T21:13:47.936Z,59.80
2018-09-24T21:16:22.456Z,60.40
2018-09-24T21:18:56.927Z,60.40
2018-09-24T21:21:31.531Z,60.50
2018-09-24T21:24:06.260Z,60.60
2018-09-24T21:26:40.905Z,60.60
2018-09-24T21:29:15.348Z,60.70
2018-09-24T21:31:49.863Z,60.60
2018-09-24T21:34:24.447Z,60.70
2018-09-24T21:36:59.038Z,60.70
2018-09-24T21:39:33.581Z,60.70
2018-09-24T21:42:07.915Z,60.80
2018-09-24T21:44:42.465Z,60.80
2018-09-24T21:47:17.159Z,60.80
2018-09-24T21:49:51.580Z,60.80
2018-09-24T21:52:26.235Z,60.80
2018-09-24T21:55:00.838Z,60.80
2018-09-24T21:57:35.296Z,60.80
2018-09-24T22:00:10.211Z,60.60
2018-09-24T22:02:44.820Z,60.60
2018-09-24T22:05:19.625Z,60.40
2018-09-24T22:07:54.195Z,60.40
2018-09-24T22:10:28.821Z,61.20
2018-09-24T22:13:03.229Z,60.20
2018-09-24T22:15:37.736Z,60.30
2018-09-24T22:18:12.406Z,60.30
2018-09-24T22:20:47.040Z,60.30
2018-09-24T22:23:21.686Z,60.30
2018-09-24T22:25:56.348Z,60.30
2018-09-24T22:28:31.079Z,60.20
2018-09-24T22:31:05.610Z,59.70
2018-09-24T22:33:40.149Z,60.20
2018-09-24T22:36:14.839Z,60.20
2018-09-24T22:38:49.405Z,60.30
2018-09-24T22:41:23.820Z,60.30
2018-09-24T22:43:58.501Z,60.40
2018-09-24T22:46:32.973Z,60.30
2018-09-24T22:49:07.439Z,60.40
2018-09-24T22:51:41.921Z,60.40
2018-09-24T22:54:16.486Z,60.40
2018-09-24T22:56:51.055Z,60.40
2018-09-24T22:59:25.736Z,60.40
2018-09-24T23:02:00.284Z,60.40
2018-09-24T23:04:34.955Z,60.50
2018-09-24T23:07:09.627Z,60.50
2018-09-24T23:09:44.355Z,60.50
2018-09-24T23:12:18.949Z,60.50
2018-09-24T23:14:53.525Z,60.60
2018-09-24T23:17:28.176Z,60.60
2018-09-24T23:20:02.649Z,60.60
2018-09-24T23:22:37.272Z,60.70
2018-09-24T23:25:11.881Z,60.60
2018-09-24T23:27:46.590Z,60.70
2018-09-24T23:30:21.199Z,60.60
2018-09-24T23:32:55.787Z,60.60
2018-09-24T23:35:30.358Z,60.80
2018-09-24T23:38:04.745Z,60.80
2018-09-24T23:40:39.319Z,60.80
2018-09-24T23:43:13.862Z,61.80
2018-09-24T23:45:48.401Z,61.50
2018-09-24T23:48:23.020Z,61.20
2018-09-24T23:50:57.561Z,61.10
2018-09-24T23:53:32.045Z,61.00
2018-09-24T23:56:06.368Z,60.90
2018-09-24T23:58:41.105Z,60.80
